createdAt,value
2019-04-26T00:00:16.631Z,15.32
2019-04-26T00:01:15.962Z,15.37
2019-04-26T00:02:16.502Z,15.35
2019-04-26T00:03:16.236Z,15.3
2019-04-26T00:04:16.224Z,15.35
2019-04-26T00:05:16.462Z,15.27
2019-04-26T00:06:15.198Z,15.29
2019-04-26T00:07:16.989Z,15.14
2019-04-26T00:08:15.567Z,15.15
2019-04-26T00:09:15.598Z,15.17
2019-04-26T00:10:16.457Z,15.23
2019-04-26T00:11:15.879Z,15.17
2019-04-26T00:12:17.016Z,15.26
2019-04-26T00:13:17.367Z,14.9
2019-04-26T00:14:16.214Z,14.82
2019-04-26T00:15:17.248Z,14.71
2019-04-26T00:16:15.281Z,14.99
2019-04-26T00:17:16.268Z,15
2019-04-26T00:18:15.373Z,15.02
2019-04-26T00:19:15.732Z,14.92
2019-04-26T00:20:15.551Z,14.79
2019-04-26T00:21:16.908Z,14.55
2019-04-26T00:22:16.862Z,14.41
2019-04-26T00:23:16.787Z,14.34
2019-04-26T00:24:15.234Z,14.25
2019-04-26T00:25:16.252Z,14.2
2019-04-26T00:26:15.478Z,14.18
2019-04-26T00:27:15.310Z,14.18
2019-04-26T00:28:15.420Z,14.28
2019-04-26T00:29:15.286Z,14.28
2019-04-26T00:30:15.605Z,14.3
2019-04-26T00:31:15.077Z,14.43
2019-04-26T00:32:15.706Z,14.37
2019-04-26T00:33:15.829Z,14.38
2019-04-26T00:34:15.959Z,14.28
2019-04-26T00:35:15.680Z,14.41
2019-04-26T00:36:16.641Z,14.19
2019-04-26T00:37:15.900Z,14.04
2019-04-26T00:38:16.833Z,14.01
2019-04-26T00:39:16.079Z,14.12
2019-04-26T00:40:16.213Z,14.23
2019-04-26T00:41:16.320Z,14.03
2019-04-26T00:42:16.473Z,13.67
2019-04-26T00:43:16.338Z,13.61
2019-04-26T00:44:15.038Z,13.75
2019-04-26T00:45:16.739Z,13.89
2019-04-26T00:46:16.766Z,13.85
2019-04-26T00:47:16.944Z,13.82
2019-04-26T00:48:15.353Z,13.82
2019-04-26T00:49:15.399Z,13.94
2019-04-26T00:50:15.256Z,13.78
2019-04-26T00:51:15.207Z,13.87
2019-04-26T00:52:15.573Z,13.78
2019-04-26T00:53:14.804Z,13.71
2019-04-26T00:54:14.593Z,13.82
2019-04-26T00:55:14.375Z,13.87
2019-04-26T00:56:14.627Z,13.78
2019-04-26T00:57:14.598Z,13.75
2019-04-26T00:58:15.202Z,13.76
2019-04-26T00:59:15.022Z,13.71
2019-04-26T01:00:15.172Z,13.75
2019-04-26T01:01:15.099Z,13.7
2019-04-26T01:02:15.199Z,13.71
2019-04-26T01:03:15.230Z,13.64
2019-04-26T01:04:14.566Z,13.54
2019-04-26T01:05:14.410Z,13.71
2019-04-26T01:06:14.478Z,13.75
2019-04-26T01:07:15.535Z,13.65
2019-04-26T01:08:15.675Z,13.62
2019-04-26T01:09:15.852Z,13.31
2019-04-26T01:10:15.258Z,13.16
2019-04-26T01:11:15.292Z,13.03
2019-04-26T01:12:15.431Z,12.91
2019-04-26T01:13:14.285Z,12.87
2019-04-26T01:14:14.304Z,12.9
2019-04-26T01:15:15.848Z,12.99
2019-04-26T01:16:14.288Z,12.95
2019-04-26T01:17:15.981Z,12.87
2019-04-26T01:18:14.283Z,12.84
2019-04-26T01:19:14.292Z,12.88
2019-04-26T01:20:14.268Z,12.9
2019-04-26T01:21:14.297Z,12.88
2019-04-26T01:22:14.286Z,12.91
2019-04-26T01:23:14.258Z,12.87
2019-04-26T01:24:14.264Z,12.88
2019-04-26T01:25:14.286Z,12.83
2019-04-26T01:26:14.277Z,12.35
2019-04-26T01:27:14.355Z,12.51
2019-04-26T01:28:14.385Z,12.73
2019-04-26T01:29:14.316Z,12.73
2019-04-26T01:30:14.315Z,12.75
2019-04-26T01:31:14.313Z,12.55
2019-04-26T01:32:14.292Z,12.61
2019-04-26T01:33:14.318Z,12.62
2019-04-26T01:34:14.310Z,12.53
2019-04-26T01:35:14.318Z,12.35
2019-04-26T01:36:19.445Z,12.08
2019-04-26T01:37:14.366Z,12
2019-04-26T01:38:14.306Z,12.05
2019-04-26T01:39:14.333Z,12
2019-04-26T01:40:14.282Z,11.99
2019-04-26T01:41:14.529Z,12.11
2019-04-26T01:42:14.388Z,12.03
2019-04-26T01:43:14.374Z,11.89
2019-04-26T01:44:14.390Z,11.96
2019-04-26T01:45:14.374Z,12.02
2019-04-26T01:46:14.652Z,11.97
2019-04-26T01:47:14.365Z,11.95
2019-04-26T01:48:14.428Z,12.07
2019-04-26T01:49:14.316Z,12.11
2019-04-26T01:50:14.348Z,11.89
2019-04-26T01:51:14.354Z,11.95
2019-04-26T01:52:14.330Z,11.89
2019-04-26T01:53:14.307Z,11.85
2019-04-26T01:54:14.307Z,11.73
2019-04-26T01:55:14.314Z,11.6
2019-04-26T01:56:14.335Z,11.59
2019-04-26T01:57:14.365Z,11.67
2019-04-26T01:58:14.309Z,11.71
2019-04-26T01:59:14.320Z,11.76
2019-04-26T02:00:14.356Z,11.6
2019-04-26T02:01:14.492Z,11.38
2019-04-26T02:02:14.417Z,11.67
2019-04-26T02:03:14.366Z,11.7
2019-04-26T02:04:14.380Z,11.76
2019-04-26T02:05:14.335Z,11.74
2019-04-26T02:06:24.892Z,11.73
2019-04-26T02:07:14.334Z,11.78
2019-04-26T02:08:14.294Z,11.86
2019-04-26T02:09:14.487Z,11.85
2019-04-26T02:10:14.348Z,11.52
2019-04-26T02:11:14.434Z,11.43
2019-04-26T02:12:14.371Z,11.62
2019-04-26T02:13:14.332Z,11.59
2019-04-26T02:14:14.339Z,11.67
2019-04-26T02:15:14.327Z,11.68
2019-04-26T02:16:14.394Z,11.68
2019-04-26T02:17:14.363Z,11.59
2019-04-26T02:18:14.361Z,11.76
2019-04-26T02:19:14.352Z,11.68
2019-04-26T02:20:14.327Z,11.74
2019-04-26T02:21:14.346Z,11.67
2019-04-26T02:22:14.354Z,11.49
2019-04-26T02:23:14.359Z,11.41
2019-04-26T02:24:14.377Z,11.51
2019-04-26T02:25:14.366Z,11.43
2019-04-26T02:26:14.421Z,11.48
2019-04-26T02:27:14.856Z,11.45
2019-04-26T02:28:14.387Z,11.6
2019-04-26T02:29:14.398Z,11.59
2019-04-26T02:30:14.359Z,11.52
2019-04-26T02:31:14.350Z,11.65
2019-04-26T02:32:14.360Z,11.67
2019-04-26T02:33:14.876Z,11.77
2019-04-26T02:34:14.374Z,11.85
2019-04-26T02:35:14.398Z,11.83
2019-04-26T02:36:14.367Z,11.88
2019-04-26T02:37:15.908Z,11.7
2019-04-26T02:38:14.560Z,11.77
2019-04-26T02:39:14.425Z,11.76
2019-04-26T02:40:14.389Z,11.81
2019-04-26T02:41:15.506Z,11.96
2019-04-26T02:42:14.369Z,11.71
2019-04-26T02:43:14.394Z,11.6
2019-04-26T02:44:14.441Z,11.6
2019-04-26T02:45:14.419Z,11.49
2019-04-26T02:46:14.456Z,11.6
2019-04-26T02:47:14.524Z,11.63
2019-04-26T02:48:14.488Z,11.59
2019-04-26T02:49:14.530Z,11.55
2019-04-26T02:50:14.527Z,11.71
2019-04-26T02:51:14.422Z,11.45
2019-04-26T02:52:14.409Z,11.41
2019-04-26T02:53:14.420Z,11.53
2019-04-26T02:54:14.408Z,11.41
2019-04-26T02:55:14.415Z,11.52
2019-04-26T02:56:14.401Z,11.53
2019-04-26T02:57:14.361Z,11.63
2019-04-26T02:58:14.430Z,11.67
2019-04-26T02:59:14.393Z,11.58
2019-04-26T03:00:14.444Z,11.45
2019-04-26T03:01:14.567Z,11.37
2019-04-26T03:02:14.438Z,11.2
2019-04-26T03:03:14.460Z,11.16
2019-04-26T03:04:14.443Z,10.98
2019-04-26T03:05:14.435Z,11.13
2019-04-26T03:06:14.443Z,10.94
2019-04-26T03:07:14.427Z,11.07
2019-04-26T03:08:14.418Z,11.23
2019-04-26T03:09:14.476Z,11.05
2019-04-26T03:10:14.452Z,10.98
2019-04-26T03:11:19.801Z,11.04
2019-04-26T03:12:14.479Z,10.82
2019-04-26T03:13:14.484Z,10.75
2019-04-26T03:14:14.489Z,10.65
2019-04-26T03:15:19.548Z,10.59
2019-04-26T03:16:14.458Z,10.79
2019-04-26T03:17:14.443Z,10.83
2019-04-26T03:18:14.485Z,10.94
2019-04-26T03:19:14.405Z,11.05
2019-04-26T03:20:14.464Z,11.08
2019-04-26T03:21:14.511Z,11.08
2019-04-26T03:22:14.517Z,11.04
2019-04-26T03:23:14.427Z,11.13
2019-04-26T03:24:14.434Z,10.98
2019-04-26T03:25:14.492Z,11.12
2019-04-26T03:26:14.483Z,11.13
2019-04-26T03:27:14.450Z,11.19
2019-04-26T03:28:14.462Z,11.13
2019-04-26T03:29:14.447Z,11
2019-04-26T03:30:26.734Z,10.92
2019-04-26T03:31:14.502Z,11.08
2019-04-26T03:32:21.453Z,10.9
2019-04-26T03:33:14.840Z,10.69
2019-04-26T03:34:15.575Z,10.67
2019-04-26T03:35:14.693Z,10.62
2019-04-26T03:36:14.675Z,10.71
2019-04-26T03:37:26.047Z,10.82
2019-04-26T03:38:14.467Z,10.87
2019-04-26T03:39:14.489Z,10.92
2019-04-26T03:40:14.518Z,10.82
2019-04-26T03:41:18.291Z,10.76
2019-04-26T03:42:14.512Z,10.84
2019-04-26T03:43:14.496Z,10.92
2019-04-26T03:44:14.503Z,11.02
2019-04-26T03:45:14.528Z,10.92
2019-04-26T03:46:14.796Z,10.87
2019-04-26T03:47:14.475Z,10.94
2019-04-26T03:48:14.525Z,11
2019-04-26T03:49:14.490Z,10.9
2019-04-26T03:50:14.482Z,10.86
2019-04-26T03:51:14.502Z,10.84
2019-04-26T03:52:14.615Z,10.92
2019-04-26T03:53:15.034Z,10.95
2019-04-26T03:54:14.461Z,11
2019-04-26T03:55:14.470Z,10.95
2019-04-26T03:56:14.497Z,10.94
2019-04-26T03:57:18.609Z,10.94
2019-04-26T03:58:14.486Z,10.97
2019-04-26T03:59:14.524Z,10.94
2019-04-26T04:00:14.502Z,11.01
2019-04-26T04:01:14.506Z,10.97
2019-04-26T04:02:14.477Z,11.08
2019-04-26T04:03:14.506Z,10.72
2019-04-26T04:04:14.883Z,10.65
2019-04-26T04:05:14.517Z,10.71
2019-04-26T04:06:14.641Z,10.84
2019-04-26T04:07:14.535Z,10.89
2019-04-26T04:08:14.475Z,10.83
2019-04-26T04:09:17.927Z,10.77
2019-04-26T04:10:14.474Z,10.67
2019-04-26T04:11:16.634Z,10.69
2019-04-26T04:12:17.376Z,10.77
2019-04-26T04:13:14.523Z,10.83
2019-04-26T04:14:15.079Z,10.83
2019-04-26T04:15:14.571Z,10.67
2019-04-26T04:16:14.870Z,10.69
2019-04-26T04:17:14.526Z,10.71
2019-04-26T04:18:14.559Z,10.64
2019-04-26T04:19:14.559Z,10.65
2019-04-26T04:20:14.573Z,10.69
2019-04-26T04:21:14.531Z,10.75
2019-04-26T04:22:14.539Z,10.8
2019-04-26T04:23:14.592Z,10.87
2019-04-26T04:24:14.594Z,10.82
2019-04-26T04:25:14.599Z,10.69
2019-04-26T04:26:14.611Z,10.75
2019-04-26T04:27:14.552Z,10.69
2019-04-26T04:28:14.594Z,10.82
2019-04-26T04:29:14.582Z,10.83
2019-04-26T04:30:14.669Z,10.84
2019-04-26T04:31:14.617Z,10.68
2019-04-26T04:32:14.579Z,10.75
2019-04-26T04:33:14.551Z,10.8
2019-04-26T04:34:14.656Z,10.79
2019-04-26T04:35:14.599Z,10.89
2019-04-26T04:36:14.715Z,10.92
2019-04-26T04:37:14.598Z,10.92
2019-04-26T04:38:15.284Z,10.89
2019-04-26T04:39:17.931Z,10.98
2019-04-26T04:40:14.556Z,10.89
2019-04-26T04:41:26.730Z,10.86
2019-04-26T04:42:14.907Z,10.89
2019-04-26T04:43:14.826Z,10.89
2019-04-26T04:44:14.597Z,10.97
2019-04-26T04:45:14.578Z,10.94
2019-04-26T04:46:15.139Z,10.9
2019-04-26T04:47:34.044Z,11.05
2019-04-26T04:48:14.600Z,10.82
2019-04-26T04:49:14.580Z,10.75
2019-04-26T04:50:14.630Z,10.8
2019-04-26T04:51:14.621Z,10.87
2019-04-26T04:52:14.621Z,10.86
2019-04-26T04:53:14.690Z,10.8
2019-04-26T04:54:14.738Z,10.8
2019-04-26T04:55:14.631Z,10.92
2019-04-26T04:56:14.652Z,10.82
2019-04-26T04:57:14.574Z,10.69
2019-04-26T04:58:14.949Z,10.76
2019-04-26T04:59:14.586Z,10.86
2019-04-26T05:00:14.631Z,10.97
2019-04-26T05:01:14.579Z,11.08
2019-04-26T05:02:14.607Z,11.05
2019-04-26T05:03:14.593Z,11.13
2019-04-26T05:04:14.579Z,11.18
2019-04-26T05:05:14.610Z,11.31
2019-04-26T05:06:14.612Z,11.38
2019-04-26T05:07:14.559Z,11.43
2019-04-26T05:08:14.602Z,11.38
2019-04-26T05:09:14.645Z,11.58
2019-04-26T05:10:14.579Z,11.51
2019-04-26T05:11:25.285Z,11.55
2019-04-26T05:12:14.644Z,11.58
2019-04-26T05:13:14.628Z,11.56
2019-04-26T05:14:14.597Z,11.68
2019-04-26T05:15:14.699Z,11.89
2019-04-26T05:16:15.101Z,11.95
2019-04-26T05:17:14.693Z,11.86
2019-04-26T05:18:14.614Z,11.85
2019-04-26T05:19:14.635Z,11.71
2019-04-26T05:20:14.611Z,11.85
2019-04-26T05:21:14.855Z,11.97
2019-04-26T05:22:14.645Z,11.93
2019-04-26T05:23:14.655Z,11.96
2019-04-26T05:24:14.697Z,12.02
2019-04-26T05:25:14.724Z,12.15
2019-04-26T05:26:14.757Z,12.23
2019-04-26T05:27:14.676Z,12.25
2019-04-26T05:28:14.681Z,12.36
2019-04-26T05:29:14.758Z,12.45
2019-04-26T05:30:14.678Z,12.21
2019-04-26T05:31:14.738Z,12.33
2019-04-26T05:32:14.642Z,12.43
2019-04-26T05:33:14.650Z,12.44
2019-04-26T05:34:15.033Z,12.61
2019-04-26T05:35:14.632Z,12.7
2019-04-26T05:36:14.657Z,12.63
2019-04-26T05:37:14.637Z,12.65
2019-04-26T05:38:23.864Z,12.73
2019-04-26T05:39:14.700Z,12.63
2019-04-26T05:40:14.682Z,12.84
2019-04-26T05:41:20.936Z,12.86
2019-04-26T05:42:14.711Z,12.78
2019-04-26T05:43:14.661Z,12.91
2019-04-26T05:44:14.684Z,12.84
2019-04-26T05:45:15.002Z,12.98
2019-04-26T05:46:14.693Z,12.91
2019-04-26T05:47:14.687Z,12.83
2019-04-26T05:48:17.150Z,12.9
2019-04-26T05:49:14.877Z,12.66
2019-04-26T05:50:14.867Z,12.8
2019-04-26T05:51:14.686Z,12.9
2019-04-26T05:52:19.000Z,12.86
2019-04-26T05:53:14.663Z,12.95
2019-04-26T05:54:14.653Z,12.73
2019-04-26T05:55:14.673Z,13.16
2019-04-26T05:56:14.637Z,13.33
2019-04-26T05:57:14.815Z,13.52
2019-04-26T05:58:14.757Z,13.45
2019-04-26T05:59:14.702Z,13.57
2019-04-26T06:00:14.689Z,13.76
2019-04-26T06:01:14.735Z,13.91
2019-04-26T06:02:14.738Z,14.04
2019-04-26T06:03:14.709Z,14.13
2019-04-26T06:04:14.712Z,14.2
2019-04-26T06:05:15.805Z,14.44
2019-04-26T06:06:14.749Z,14.37
2019-04-26T06:07:14.823Z,14.52
2019-04-26T06:08:14.766Z,14.59
2019-04-26T06:09:14.661Z,14.63
2019-04-26T06:10:14.673Z,14.94
2019-04-26T06:11:23.007Z,14.87
2019-04-26T06:12:17.616Z,14.81
2019-04-26T06:13:14.777Z,15
2019-04-26T06:14:14.752Z,15.17
2019-04-26T06:15:14.731Z,15.29
2019-04-26T06:16:14.733Z,15.48
2019-04-26T06:17:14.803Z,15.39
2019-04-26T06:18:14.750Z,15.62
2019-04-26T06:19:14.753Z,15.33
2019-04-26T06:20:27.497Z,15.51
2019-04-26T06:21:15.590Z,15.6
2019-04-26T06:22:14.713Z,15.55
2019-04-26T06:23:14.767Z,15.57
2019-04-26T06:24:14.731Z,15.43
2019-04-26T06:25:14.812Z,15.07
2019-04-26T06:26:14.759Z,14.55
2019-04-26T06:27:19.437Z,14.68
2019-04-26T06:28:14.718Z,14.59
2019-04-26T06:29:14.818Z,14.51
2019-04-26T06:30:14.772Z,14.53
2019-04-26T06:31:14.762Z,14.44
2019-04-26T06:32:14.760Z,14.59
2019-04-26T06:33:15.566Z,14.44
2019-04-26T06:34:14.774Z,14.23
2019-04-26T06:35:14.838Z,14.03
2019-04-26T06:36:14.991Z,14.18
2019-04-26T06:37:14.754Z,14.12
2019-04-26T06:38:14.801Z,14.08
2019-04-26T06:39:14.817Z,14.22
2019-04-26T06:40:14.774Z,14.13
2019-04-26T06:41:14.783Z,14.23
2019-04-26T06:42:14.810Z,14.07
2019-04-26T06:43:14.804Z,14.07
2019-04-26T06:44:14.801Z,14.25
2019-04-26T06:45:14.850Z,13.97
2019-04-26T06:46:15.123Z,14.22
2019-04-26T06:47:14.890Z,14.19
2019-04-26T06:48:14.850Z,14.19
2019-04-26T06:49:14.815Z,14.23
2019-04-26T06:50:15.460Z,14.15
2019-04-26T06:51:29.031Z,14.15
2019-04-26T06:52:14.899Z,14.11
2019-04-26T06:53:14.860Z,13.95
2019-04-26T06:54:15.408Z,13.94
2019-04-26T06:55:14.859Z,13.76
2019-04-26T06:56:14.821Z,13.93
2019-04-26T06:57:20.368Z,13.83
2019-04-26T06:58:15.753Z,13.82
2019-04-26T06:59:17.052Z,13.87
2019-04-26T07:00:14.808Z,13.8
2019-04-26T07:01:14.933Z,13.78
2019-04-26T07:02:14.822Z,13.54
2019-04-26T07:03:14.844Z,13.5
2019-04-26T07:04:15.817Z,13.68
2019-04-26T07:05:17.790Z,13.73
2019-04-26T07:06:14.849Z,13.49
2019-04-26T07:07:16.038Z,13.54
2019-04-26T07:08:15.403Z,13.55
2019-04-26T07:09:14.844Z,13.47
2019-04-26T07:10:14.869Z,13.43
2019-04-26T07:11:14.942Z,13.55
2019-04-26T07:12:14.847Z,13.17
2019-04-26T07:13:17.453Z,13.31
2019-04-26T07:14:14.864Z,13.42
2019-04-26T07:15:27.655Z,13.55
2019-04-26T07:16:27.333Z,13.28
2019-04-26T07:17:14.928Z,13.37
2019-04-26T07:18:15.932Z,13.45
2019-04-26T07:19:15.927Z,13.54
2019-04-26T07:20:14.862Z,13.64
2019-04-26T07:21:14.926Z,13.78
2019-04-26T07:22:14.883Z,13.64
2019-04-26T07:23:15.368Z,13.61
2019-04-26T07:24:15.990Z,13.71
2019-04-26T07:25:17.599Z,13.58
2019-04-26T07:26:14.875Z,13.57
2019-04-26T07:27:15.770Z,13.75
2019-04-26T07:28:17.511Z,13.71
2019-04-26T07:29:14.883Z,13.75
2019-04-26T07:30:15.271Z,13.73
2019-04-26T07:31:15.775Z,13.58
2019-04-26T07:32:14.884Z,13.68
2019-04-26T07:33:15.256Z,13.57
2019-04-26T07:34:14.849Z,13.49
2019-04-26T07:35:15.696Z,13.61
2019-04-26T07:36:15.153Z,13.49
2019-04-26T07:37:14.873Z,13.55
2019-04-26T07:38:15.263Z,13.68
2019-04-26T07:39:24.569Z,13.52
2019-04-26T07:40:14.809Z,13.64
2019-04-26T07:41:14.915Z,13.78
2019-04-26T07:42:16.826Z,13.58
2019-04-26T07:43:15.650Z,13.54
2019-04-26T07:44:15.141Z,13.71
2019-04-26T07:45:15.500Z,13.75
2019-04-26T07:46:15.940Z,13.83
2019-04-26T07:47:17.922Z,13.83
2019-04-26T07:48:14.840Z,13.93
2019-04-26T07:49:15.519Z,13.97
2019-04-26T07:50:15.005Z,13.93
2019-04-26T07:51:14.898Z,13.8
2019-04-26T07:52:15.787Z,13.83
2019-04-26T07:53:16.001Z,13.85
2019-04-26T07:54:15.818Z,13.71
2019-04-26T07:55:16.175Z,13.71
2019-04-26T07:56:14.893Z,13.68
2019-04-26T07:57:15.947Z,13.8
2019-04-26T07:58:15.784Z,13.98
2019-04-26T07:59:15.921Z,13.95
2019-04-26T08:00:16.050Z,14.12
2019-04-26T08:01:15.169Z,13.86
2019-04-26T08:02:15.974Z,13.97
2019-04-26T08:03:15.949Z,13.91
2019-04-26T08:04:14.882Z,13.83
2019-04-26T08:05:16.103Z,13.85
2019-04-26T08:06:14.911Z,13.98
2019-04-26T08:07:16.481Z,14.08
2019-04-26T08:08:16.053Z,14.16
2019-04-26T08:09:30.380Z,14.05
2019-04-26T08:10:15.308Z,13.95
2019-04-26T08:11:16.007Z,13.94
2019-04-26T08:16:32.607Z,13.97
2019-04-26T08:16:43.665Z,14.04
2019-04-26T08:17:44.454Z,14.11
2019-04-26T08:18:43.646Z,14.04
2019-04-26T08:19:43.646Z,14.12
2019-04-26T08:20:43.837Z,13.97
2019-04-26T08:21:47.948Z,14.12
2019-04-26T08:22:43.706Z,14.08
2019-04-26T08:23:47.309Z,14.11
2019-04-26T08:24:44.139Z,14.05
2019-04-26T08:25:43.705Z,13.97
2019-04-26T08:26:43.687Z,13.93
2019-04-26T08:27:43.636Z,13.7
2019-04-26T08:28:43.760Z,13.64
2019-04-26T08:29:43.653Z,13.73
2019-04-26T08:30:50.265Z,13.82
2019-04-26T08:31:43.680Z,13.93
2019-04-26T08:32:43.724Z,13.98
2019-04-26T08:33:51.357Z,13.94
2019-04-26T08:34:43.677Z,14.01
2019-04-26T08:35:48.621Z,13.85
2019-04-26T08:36:43.673Z,13.89
2019-04-26T08:37:43.643Z,13.76
2019-04-26T08:38:43.728Z,13.83
2019-04-26T08:39:54.670Z,13.7
2019-04-26T08:40:43.867Z,13.87
2019-04-26T08:41:55.239Z,13.83
2019-04-26T08:42:43.816Z,13.95
2019-04-26T08:43:43.683Z,14.01
2019-04-26T08:44:43.694Z,13.97
2019-04-26T08:46:03.003Z,13.89
2019-04-26T08:46:43.999Z,13.75
2019-04-26T08:47:45.885Z,14.05
2019-04-26T08:48:43.695Z,14.23
2019-04-26T08:49:44.560Z,14.18
2019-04-26T08:50:48.923Z,14.13
2019-04-26T08:51:44.089Z,14.31
2019-04-26T08:52:43.744Z,14.18
2019-04-26T08:53:43.686Z,14.36
2019-04-26T08:54:43.709Z,14.25
2019-04-26T08:55:43.743Z,14.18
2019-04-26T08:56:43.706Z,14.2
2019-04-26T08:57:43.886Z,14.23
2019-04-26T08:58:43.787Z,14.2
2019-04-26T08:59:43.690Z,14.18
2019-04-26T09:00:43.907Z,14.2
2019-04-26T09:01:48.300Z,13.97
2019-04-26T09:02:43.731Z,14.22
2019-04-26T09:03:44.103Z,14.23
2019-04-26T09:04:43.759Z,14.16
2019-04-26T09:05:45.552Z,14.07
2019-04-26T09:06:43.924Z,14.2
2019-04-26T09:07:43.696Z,14.11
2019-04-26T09:08:46.714Z,14.16
2019-04-26T09:09:43.728Z,14.05
2019-04-26T09:10:46.091Z,14.13
2019-04-26T09:12:08.135Z,14.07
2019-04-26T09:12:43.766Z,14.23
2019-04-26T09:13:43.734Z,14.08
2019-04-26T09:14:43.743Z,14.13
2019-04-26T09:15:45.888Z,14.04
2019-04-26T09:16:55.305Z,13.97
2019-04-26T09:17:43.739Z,13.97
2019-04-26T09:18:59.322Z,13.94
2019-04-26T09:19:43.737Z,13.94
2019-04-26T09:20:48.673Z,13.76
2019-04-26T09:21:47.389Z,13.75
2019-04-26T09:22:43.691Z,13.75
2019-04-26T09:23:51.918Z,13.64
2019-04-26T09:24:45.421Z,13.65
2019-04-26T09:25:44.650Z,13.93
2019-04-26T09:26:51.193Z,13.82
2019-04-26T09:27:43.719Z,13.71
2019-04-26T09:28:43.789Z,13.89
2019-04-26T09:29:43.754Z,13.82
2019-04-26T09:30:50.314Z,13.8
2019-04-26T09:31:43.789Z,13.83
2019-04-26T09:32:43.742Z,13.8
2019-04-26T09:33:43.757Z,13.78
2019-04-26T09:34:46.597Z,13.82
2019-04-26T09:35:43.778Z,13.78
2019-04-26T09:36:43.766Z,13.73
2019-04-26T09:37:44.071Z,14.03
2019-04-26T09:38:43.744Z,13.93
2019-04-26T09:39:47.056Z,13.83
2019-04-26T09:40:44.731Z,13.89
2019-04-26T09:41:54.216Z,14.03
2019-04-26T09:42:46.055Z,13.97
2019-04-26T09:43:43.825Z,14.12
2019-04-26T09:44:46.928Z,14.11
2019-04-26T09:45:43.793Z,13.86
2019-04-26T09:46:44.401Z,14.04
2019-04-26T09:47:43.750Z,13.97
2019-04-26T09:48:43.761Z,13.98
2019-04-26T09:49:46.503Z,14.05
2019-04-26T09:50:43.829Z,13.98
2019-04-26T09:51:44.890Z,13.86
2019-04-26T09:52:43.827Z,13.91
2019-04-26T09:53:46.025Z,13.93
2019-04-26T09:54:43.756Z,13.91
2019-04-26T09:55:43.765Z,13.97
2019-04-26T09:56:43.792Z,13.83
2019-04-26T09:57:43.800Z,13.94
2019-04-26T09:58:43.803Z,13.94
2019-04-26T09:59:45.309Z,13.93
2019-04-26T10:00:48.411Z,14.07
2019-04-26T10:01:43.887Z,13.86
2019-04-26T10:02:43.791Z,13.94
2019-04-26T10:03:43.834Z,13.85
2019-04-26T10:04:43.807Z,13.79
2019-04-26T10:05:44.286Z,13.71
2019-04-26T10:06:44.145Z,13.79
2019-04-26T10:07:44.195Z,13.58
2019-04-26T10:08:46.993Z,13.65
2019-04-26T10:09:43.836Z,13.6
2019-04-26T10:10:43.924Z,13.71
2019-04-26T10:11:52.099Z,13.57
2019-04-26T10:12:43.812Z,13.58
2019-04-26T10:13:43.820Z,13.54
2019-04-26T10:14:46.394Z,13.54
2019-04-26T10:15:44.401Z,13.54
2019-04-26T10:16:47.547Z,13.5
2019-04-26T10:17:46.374Z,13.6
2019-04-26T10:18:43.807Z,13.55
2019-04-26T10:19:43.813Z,13.61
2019-04-26T10:20:44.373Z,13.7
2019-04-26T10:21:43.871Z,13.79
2019-04-26T10:22:43.880Z,13.61
2019-04-26T10:23:43.861Z,13.55
2019-04-26T10:24:43.883Z,13.6
2019-04-26T10:25:47.259Z,13.57
2019-04-26T10:26:43.922Z,13.57
2019-04-26T10:27:46.100Z,13.55
2019-04-26T10:28:46.660Z,13.6
2019-04-26T10:29:43.839Z,13.6
2019-04-26T10:30:48.029Z,13.45
2019-04-26T10:31:47.516Z,13.58
2019-04-26T10:32:43.862Z,13.58
2019-04-26T10:33:43.812Z,13.68
2019-04-26T10:34:47.236Z,13.62
2019-04-26T10:35:43.840Z,13.6
2019-04-26T10:36:43.835Z,13.45
2019-04-26T10:37:47.993Z,13.62
2019-04-26T10:38:43.838Z,13.58
2019-04-26T10:39:43.847Z,13.49
2019-04-26T10:40:43.916Z,13.52
2019-04-26T10:41:59.004Z,13.54
2019-04-26T10:42:44.106Z,13.52
2019-04-26T10:43:44.021Z,13.5
2019-04-26T10:44:45.524Z,13.47
2019-04-26T10:45:45.425Z,13.52
2019-04-26T10:46:54.974Z,13.42
2019-04-26T10:47:45.177Z,13.31
2019-04-26T10:48:49.647Z,13.23
2019-04-26T10:49:43.941Z,13.02
2019-04-26T10:50:44.314Z,13.01
2019-04-26T10:51:47.353Z,13.09
2019-04-26T10:52:47.111Z,13.01
2019-04-26T10:53:43.923Z,13.12
2019-04-26T10:54:49.012Z,13.08
2019-04-26T10:55:46.341Z,13.19
2019-04-26T10:56:43.947Z,13.06
2019-04-26T10:57:43.893Z,13.12
2019-04-26T10:58:43.880Z,13.24
2019-04-26T10:59:48.945Z,13.08
2019-04-26T11:00:43.893Z,13.3
2019-04-26T11:01:43.940Z,13.26
2019-04-26T11:02:43.989Z,13.37
2019-04-26T11:03:43.909Z,13.39
2019-04-26T11:04:46.888Z,13.42
2019-04-26T11:05:43.921Z,13.4
2019-04-26T11:06:43.935Z,13.33
2019-04-26T11:07:43.876Z,13.28
2019-04-26T11:08:43.883Z,13.33
2019-04-26T11:09:43.990Z,13.3
2019-04-26T11:10:53.951Z,13.31
2019-04-26T11:11:51.898Z,13.17
2019-04-26T11:12:48.399Z,13.39
2019-04-26T11:13:43.935Z,13.37
2019-04-26T11:14:43.886Z,13.55
2019-04-26T11:15:43.907Z,13.43
2019-04-26T11:16:47.355Z,13.5
2019-04-26T11:17:46.005Z,13.75
2019-04-26T11:18:43.927Z,13.5
2019-04-26T11:19:46.780Z,13.55
2019-04-26T11:20:48.466Z,13.58
2019-04-26T11:21:44.001Z,13.65
2019-04-26T11:22:44.600Z,13.75
2019-04-26T11:23:49.973Z,13.58
2019-04-26T11:24:44.280Z,13.55
2019-04-26T11:25:43.937Z,13.43
2019-04-26T11:26:43.960Z,13.49
2019-04-26T11:27:48.645Z,13.39
2019-04-26T11:28:44.715Z,13.28
2019-04-26T11:29:59.262Z,13.03
2019-04-26T11:30:43.945Z,13.36
2019-04-26T11:31:43.930Z,13.12
2019-04-26T11:32:45.747Z,13.2
2019-04-26T11:35:49.526Z,13.28
2019-04-26T11:36:03.273Z,13.33
2019-04-26T11:37:01.073Z,13.36
2019-04-26T11:38:02.279Z,13.33
2019-04-26T11:39:05.412Z,13.37
2019-04-26T11:40:00.876Z,13.24
2019-04-26T11:41:11.474Z,13.17
2019-04-26T11:42:07.898Z,13.05
2019-04-26T11:46:50.894Z,13.2
2019-04-26T11:48:03.167Z,13.21
2019-04-26T11:49:03.118Z,13.24
2019-04-26T11:49:52.796Z,13.23
2019-04-26T11:50:55.940Z,13.27
2019-04-26T11:51:51.766Z,13.3
2019-04-26T11:52:50.498Z,13.27
2019-04-26T11:53:51.485Z,13.26
2019-04-26T11:54:55.109Z,13.05
2019-04-26T11:55:50.464Z,12.98
2019-04-26T11:56:53.034Z,13.03
2019-04-26T11:57:52.730Z,13.01
2019-04-26T11:58:52.398Z,12.9
2019-04-26T11:59:50.456Z,12.88
2019-04-26T12:00:50.457Z,12.88
2019-04-26T12:01:50.486Z,13.12
2019-04-26T12:02:53.602Z,13.08
2019-04-26T12:03:51.660Z,13.19
2019-04-26T12:04:53.668Z,13.11
2019-04-26T12:05:50.488Z,13.27
2019-04-26T12:06:50.484Z,13.23
2019-04-26T12:07:50.529Z,12.86
2019-04-26T12:08:50.528Z,12.88
2019-04-26T12:09:50.500Z,12.86
2019-04-26T12:10:51.119Z,12.93
2019-04-26T12:12:09.065Z,13.08
2019-04-26T12:13:05.027Z,12.86
2019-04-26T12:13:50.518Z,12.95
2019-04-26T12:14:50.502Z,12.94
2019-04-26T12:15:50.700Z,13.03
2019-04-26T12:17:01.963Z,13.02
2019-04-26T12:18:05.467Z,13.06
2019-04-26T12:18:50.962Z,13.11
2019-04-26T12:19:55.045Z,13.08
2019-04-26T12:20:50.500Z,13.05
2019-04-26T12:21:50.905Z,13.16
2019-04-26T12:22:50.498Z,13.12
2019-04-26T12:23:55.410Z,13.01
2019-04-26T12:24:50.530Z,13.05
2019-04-26T12:25:53.440Z,13.01
2019-04-26T12:26:55.852Z,13.06
2019-04-26T12:27:53.413Z,13.03
2019-04-26T12:28:50.572Z,13.02
2019-04-26T12:29:53.591Z,13.05
2019-04-26T12:30:54.102Z,12.99
2019-04-26T12:31:50.556Z,13.12
2019-04-26T12:32:52.815Z,13.11
2019-04-26T12:33:50.719Z,13.02
2019-04-26T12:34:50.534Z,12.9
2019-04-26T12:35:56.731Z,12.84
2019-04-26T12:36:50.547Z,12.84
2019-04-26T12:37:54.632Z,12.62
2019-04-26T12:38:50.809Z,12.69
2019-04-26T12:39:50.571Z,12.69
2019-04-26T12:40:51.497Z,12.66
2019-04-26T12:41:50.540Z,12.69
2019-04-26T12:42:53.489Z,12.58
2019-04-26T12:43:50.557Z,12.37
2019-04-26T12:44:50.511Z,12.63
2019-04-26T12:45:54.319Z,12.65
2019-04-26T12:46:53.305Z,12.57
2019-04-26T12:47:51.446Z,12.55
2019-04-26T12:48:53.789Z,12.47
2019-04-26T12:49:51.832Z,12.47
2019-04-26T12:50:50.577Z,12.5
2019-04-26T12:51:54.818Z,12.26
2019-04-26T12:52:55.452Z,12.39
2019-04-26T12:53:50.555Z,12.39
2019-04-26T12:54:50.558Z,12.47
2019-04-26T12:55:53.164Z,12.39
2019-04-26T12:56:50.542Z,12.44
2019-04-26T12:57:50.577Z,12.3
2019-04-26T12:58:54.694Z,12.26
2019-04-26T12:59:50.584Z,12.28
2019-04-26T13:00:59.355Z,12.36
2019-04-26T13:02:04.565Z,12.23
2019-04-26T13:02:54.143Z,12.15
2019-04-26T13:03:50.569Z,12.2